Pagrindinis puslapis
METAR-TAF:

METAR-TAF

Oro uostai :

Leipcigas, Vokietija

platuma: 51-25N, ilguma: 012-14E, Aukštis: 144 m

Dabartinis oras

Ataskaita buvo paskelbta 11 minutes, ne 10:20 UTC
Vėjas 6 kt iš Vakarų, svyruoja nuo Pietvakarių ir Šiaurės/Šiaurės Vakarų
Temperatūra 14°C
Drėgmė 55%
Slėgis 1029 hPa
Matomumas 10 km arba daugiau
Išsisklaidę debesys ne aukštis 3300 ft

METAR: EDDP 201020Z 26006KT 220V340 9999 SCT033 14/05 Q1029 NOSIG

Laikas: 12:31 (10:31 UTC)

Prognozė

Ataskaita buvo paskelbta 5 valandos ir 31 minutes, ne 05:00 UTC
Prognozė galioja nuo 20 metu 06 UTC su 21 metu 06 UTC
Vėjas 5 kt iš Vakarų
Matomumas 10 km arba daugiau
nėra debesų žemiau 1500 m ir nėra kamuolinių lietaus debesų
Tapsmas
nuo 20 metu 14 UTC su 20 metu 16 UTC
Vėjas 4 kt iš Pietų

TAF: EDDP 200500Z 2006/2106 28005KT CAVOK BECMG 2014/2016 19004KT

Orai ataskaitas ir orų prognozės (METAR, TAF).

turimą stotys yra geltonos ir raudonos taškus žemėlapyje.

Perkelti pele per norėdami pamatyti stoties vardą.

Tada spustelėkite, norėdami matyti oro stebėjimo ir prognozės.

Norėdami pakeisti žemėlapį: spustelėkite ant žalios mygtukų su juodo kryžiaus žemyn,; žalią mygtuką su brūkšneliu, jei norite nutolinti; arba žalių rodyklių gretimoms žemėlapius.


METAR-TAF: